createdAt,value
2023-01-03T00:00:58.099Z,99894.31
2023-01-03T00:02:02.647Z,99891.63
2023-01-03T00:03:18.483Z,99892.63
2023-01-03T00:04:22.704Z,99895.53
2023-01-03T00:05:26.997Z,99897.91
2023-01-03T00:06:38.072Z,99901.19
2023-01-03T00:07:41.621Z,99901.28
2023-01-03T00:08:45.785Z,99903.94
2023-01-03T00:09:49.606Z,99903.94
2023-01-03T00:10:53.547Z,99908.41
2023-01-03T00:12:16.631Z,99906.56
2023-01-03T00:13:20.914Z,99910.94
2023-01-03T00:14:32.507Z,99909.22
2023-01-03T00:15:38.380Z,99913.97
2023-01-03T00:16:42.285Z,99909.34
2023-01-03T00:17:47.109Z,99908.59
2023-01-03T00:18:50.856Z,99909.34
2023-01-03T00:19:55.846Z,99900.44
2023-01-03T00:21:08.206Z,99898.78
2023-01-03T00:22:21.078Z,99895.53
2023-01-03T00:23:29.155Z,99893.78
2023-01-03T00:24:36.584Z,99901.97
2023-01-03T00:25:40.152Z,99901.97
2023-01-03T00:26:45.487Z,99895.66
2023-01-03T00:27:51.432Z,99897.38
2023-01-03T00:28:56.955Z,99890.22
2023-01-03T00:30:02.260Z,99896.50
2023-01-03T00:31:12.850Z,99897.38
2023-01-03T00:32:17.827Z,99908.25
2023-01-03T00:33:23.062Z,99909.38
2023-01-03T00:34:27.218Z,99914.56
2023-01-03T00:35:31.303Z,99922.50
2023-01-03T00:36:36.254Z,99921.75
2023-01-03T00:37:41.138Z,99921.81
2023-01-03T00:38:45.051Z,99923.75
2023-01-03T00:39:50.791Z,99927.41
2023-01-03T00:40:55.289Z,99925.72
2023-01-03T00:41:59.175Z,99923.84
2023-01-03T00:43:21.234Z,99929.28
2023-01-03T00:44:25.852Z,99918.63
2023-01-03T00:45:35.084Z,99927.34
2023-01-03T00:46:40.186Z,99923.66
2023-01-03T00:47:43.869Z,99921.34
2023-01-03T00:48:50.561Z,99919.63
2023-01-03T00:49:56.826Z,99921.41
2023-01-03T00:51:23.414Z,99923.34
2023-01-03T00:52:27.147Z,99921.94
2023-01-03T00:53:30.920Z,99926.22
2023-01-03T00:54:34.878Z,99927.78
2023-01-03T00:55:39.192Z,99933.94
2023-01-03T00:56:47.842Z,99927.78
2023-01-03T00:57:51.714Z,99937.34
2023-01-03T00:58:58.204Z,99936.44
2023-01-03T01:00:04.143Z,99931.94
2023-01-03T01:01:29.473Z,99932.16
2023-01-03T01:02:43.073Z,99934.88
2023-01-03T01:04:10.309Z,99933.78
2023-01-03T01:05:13.863Z,99941.03
2023-01-03T01:06:34.060Z,99946.31
2023-01-03T01:07:38.174Z,99942.94
2023-01-03T01:08:43.476Z,99951.81
2023-01-03T01:09:47.921Z,99957.97
2023-01-03T01:11:04.219Z,99949.91
2023-01-03T01:12:20.463Z,99951.94
2023-01-03T01:13:24.486Z,99947.63
2023-01-03T01:14:31.127Z,99947.88
2023-01-03T01:15:34.920Z,99952.38
2023-01-03T01:16:40.920Z,99946.09
2023-01-03T01:17:46.103Z,99946.00
2023-01-03T01:19:02.843Z,99951.47
2023-01-03T01:20:09.590Z,99951.31
2023-01-03T01:21:21.289Z,99950.44
2023-01-03T01:22:25.024Z,99951.94
2023-01-03T01:23:32.324Z,99951.16
2023-01-03T01:24:37.590Z,99947.63
2023-01-03T01:25:45.465Z,99950.53
2023-01-03T01:26:49.997Z,99956.50
2023-01-03T01:27:54.873Z,99957.66
2023-01-03T01:28:59.003Z,99962.81
2023-01-03T01:30:02.665Z,99963.75
2023-01-03T01:31:14.352Z,99961.03
2023-01-03T01:32:18.977Z,99958.31
2023-01-03T01:33:22.347Z,99967.94
2023-01-03T01:34:25.744Z,99957.53
2023-01-03T01:35:29.880Z,99962.75
2023-01-03T01:36:39.700Z,99961.72
2023-01-03T01:37:45.206Z,99963.59
2023-01-03T01:38:57.697Z,99961.09
2023-01-03T01:40:05.225Z,99959.44
2023-01-03T01:41:13.763Z,99961.88
2023-01-03T01:42:37.185Z,99965.59
2023-01-03T01:44:18.299Z,99963.03
2023-01-03T01:45:22.293Z,99967.34
2023-01-03T01:46:36.840Z,99956.69
2023-01-03T01:48:01.957Z,99960.25
2023-01-03T01:49:15.508Z,99963.03
2023-01-03T01:50:31.038Z,99966.53
2023-01-03T01:51:36.922Z,99964.97
2023-01-03T01:52:50.650Z,99957.03
2023-01-03T01:54:00.855Z,99964.13
2023-01-03T01:55:13.928Z,99967.66
2023-01-03T01:56:28.348Z,99969.25
2023-01-03T01:57:37.643Z,99971.69
2023-01-03T01:58:50.540Z,99963.75
2023-01-03T01:59:54.239Z,99963.88
2023-01-03T02:00:59.542Z,99965.91
2023-01-03T02:02:22.115Z,99968.31
2023-01-03T02:03:27.523Z,99963.19
2023-01-03T02:04:43.057Z,99971.69
2023-01-03T02:05:55.613Z,99966.53
2023-01-03T02:07:04.086Z,99968.19
2023-01-03T02:08:08.976Z,99966.31
2023-01-03T02:09:21.181Z,99962.81
2023-01-03T02:11:09.689Z,99951.47
2023-01-03T02:13:06.005Z,99954.13
2023-01-03T02:14:58.659Z,99962.81
2023-01-03T02:16:19.449Z,99963.59
2023-01-03T02:17:50.203Z,99961.97
2023-01-03T02:19:56.657Z,99958.38
2023-01-03T02:22:00.350Z,99963.59
2023-01-03T02:23:42.740Z,99966.09
2023-01-03T02:25:24.434Z,99963.59
2023-01-03T02:26:55.908Z,99962.75
2023-01-03T02:28:38.731Z,99969.97
2023-01-03T02:30:22.690Z,99968.09
2023-01-03T02:31:52.386Z,99964.53
2023-01-03T02:33:37.262Z,99960.94
2023-01-03T02:35:13.054Z,99967.34
2023-01-03T02:36:37.695Z,99968.09
2023-01-03T02:38:16.360Z,99968.19
2023-01-03T02:39:42.038Z,99976.97
2023-01-03T02:41:12.902Z,99979.53
2023-01-03T02:43:02.348Z,99971.69
2023-01-03T02:44:31.355Z,99974.06
2023-01-03T02:46:18.397Z,99976.69
2023-01-03T02:47:28.795Z,99979.25
2023-01-03T02:49:16.532Z,99979.13
2023-01-03T02:50:31.155Z,99980.84
2023-01-03T02:51:46.208Z,99978.91
2023-01-03T02:52:55.530Z,99973.59
2023-01-03T02:54:01.319Z,99978.97
2023-01-03T02:55:22.163Z,99983.25
2023-01-03T02:56:37.887Z,99976.34
2023-01-03T02:57:53.980Z,99979.75
2023-01-03T02:59:15.544Z,99980.56
2023-01-03T03:00:26.195Z,99976.97
2023-01-03T03:01:33.780Z,99976.97
2023-01-03T03:02:40.406Z,99972.66
2023-01-03T03:03:47.528Z,99990.22
2023-01-03T03:04:57.097Z,99984.84
2023-01-03T03:06:44.464Z,99980.47
2023-01-03T03:07:47.962Z,99979.53
2023-01-03T03:08:52.070Z,99990.13
2023-01-03T03:10:20.312Z,99983.97
2023-01-03T03:11:49.410Z,99990.03
2023-01-03T03:13:16.175Z,99990.81
2023-01-03T03:14:44.080Z,99992.63
2023-01-03T03:16:11.360Z,99995.34
2023-01-03T03:17:26.509Z,99999.00
2023-01-03T03:19:46.711Z,100003.44
2023-01-03T03:21:09.070Z,99992.03
2023-01-03T03:22:49.703Z,100002.63
2023-01-03T03:24:18.248Z,100005.25
2023-01-03T03:25:38.558Z,100005.25
2023-01-03T03:26:45.427Z,100002.63
2023-01-03T03:28:16.660Z,100012.31
2023-01-03T03:29:23.988Z,100015.84
2023-01-03T03:30:42.540Z,100016.78
2023-01-03T03:31:51.273Z,100021.13
2023-01-03T03:33:12.448Z,100020.22
2023-01-03T03:34:33.146Z,100030.00
2023-01-03T03:35:51.014Z,100032.66
2023-01-03T03:37:26.748Z,100025.44
2023-01-03T03:38:38.894Z,100030.38
2023-01-03T03:40:06.549Z,100031.09
2023-01-03T03:42:01.950Z,100032.66
2023-01-03T03:43:45.566Z,100042.53
2023-01-03T03:45:02.299Z,100038.94
2023-01-03T03:46:31.147Z,100034.53
2023-01-03T03:47:44.834Z,100041.44
2023-01-03T03:49:33.298Z,100043.09
2023-01-03T03:50:53.490Z,100047.47
2023-01-03T03:52:06.785Z,100047.38
2023-01-03T03:53:14.510Z,100051.75
2023-01-03T03:54:29.071Z,100060.41
2023-01-03T03:56:04.051Z,100049.78
2023-01-03T03:57:23.523Z,100051.63
2023-01-03T03:58:43.360Z,100050.63
2023-01-03T03:59:55.505Z,100054.06
2023-01-03T04:01:01.319Z,100063.69
2023-01-03T04:02:08.437Z,100055.78
2023-01-03T04:03:24.483Z,100070.66
2023-01-03T04:04:38.023Z,100065.28
2023-01-03T04:05:49.880Z,100065.66
2023-01-03T04:06:53.819Z,100070.88
2023-01-03T04:07:59.600Z,100061.13
2023-01-03T04:09:03.920Z,100064.78
2023-01-03T04:10:11.118Z,100062.94
2023-01-03T04:11:15.005Z,100063.78
2023-01-03T04:12:21.073Z,100061.06
2023-01-03T04:13:28.058Z,100072.44
2023-01-03T04:14:33.028Z,100064.63
2023-01-03T04:15:36.965Z,100062.94
2023-01-03T04:16:45.689Z,100060.16
2023-01-03T04:17:49.962Z,100067.16
2023-01-03T04:18:54.507Z,100068.09
2023-01-03T04:19:57.931Z,100072.22
2023-01-03T04:21:01.873Z,100072.09
2023-01-03T04:22:12.798Z,100070.22
2023-01-03T04:23:16.730Z,100070.00
2023-01-03T04:24:22.654Z,100078.72
2023-01-03T04:25:28.581Z,100070.63
2023-01-03T04:26:32.694Z,100073.28
2023-01-03T04:27:37.105Z,100075.91
2023-01-03T04:28:46.819Z,100076.78
2023-01-03T04:29:51.082Z,100077.44
2023-01-03T04:31:04.806Z,100084.34
2023-01-03T04:32:11.759Z,100076.28
2023-01-03T04:33:26.143Z,100077.91
2023-01-03T04:34:30.141Z,100078.84
2023-01-03T04:35:34.883Z,100080.81
2023-01-03T04:36:38.807Z,100079.69
2023-01-03T04:37:42.649Z,100078.63
2023-01-03T04:38:46.571Z,100087.34
2023-01-03T04:39:51.141Z,100089.84
2023-01-03T04:41:16.751Z,100094.16
2023-01-03T04:42:39.836Z,100090.56
2023-01-03T04:44:15.602Z,100103.81
2023-01-03T04:45:20.645Z,100101.22
2023-01-03T04:46:26.275Z,100109.09
2023-01-03T04:47:30.155Z,100106.38
2023-01-03T04:48:34.090Z,100108.00
2023-01-03T04:49:39.204Z,100106.16
2023-01-03T04:50:42.767Z,100106.94
2023-01-03T04:51:46.661Z,100106.84
2023-01-03T04:52:50.865Z,100112.94
2023-01-03T04:53:55.370Z,100101.44
2023-01-03T04:54:59.107Z,100108.34
2023-01-03T04:56:03.236Z,100107.56
2023-01-03T04:57:15.283Z,100102.19
2023-01-03T04:58:20.817Z,100110.06
2023-01-03T04:59:24.945Z,100109.13
2023-01-03T05:00:28.517Z,100112.56
2023-01-03T05:01:32.293Z,100112.50
2023-01-03T05:02:36.379Z,100110.78
2023-01-03T05:03:41.007Z,100114.22
2023-01-03T05:04:48.100Z,100110.63
2023-01-03T05:05:52.056Z,100119.34
2023-01-03T05:07:11.860Z,100120.16
2023-01-03T05:08:15.530Z,100120.91
2023-01-03T05:09:27.163Z,100121.09
2023-01-03T05:10:32.418Z,100123.72
2023-01-03T05:11:36.300Z,100121.09
2023-01-03T05:12:39.739Z,100119.22
2023-01-03T05:13:44.265Z,100120.06
2023-01-03T05:14:48.378Z,100120.06
2023-01-03T05:15:52.370Z,100119.97
2023-01-03T05:16:55.994Z,100122.56
2023-01-03T05:17:59.495Z,100125.13
2023-01-03T05:19:02.921Z,100127.75
2023-01-03T05:20:31.193Z,100126.00
2023-01-03T05:21:56.169Z,100138.34
2023-01-03T05:23:19.089Z,100131.50
2023-01-03T05:24:41.560Z,100125.38
2023-01-03T05:25:52.066Z,100131.50
2023-01-03T05:26:57.163Z,100135.09
2023-01-03T05:28:02.752Z,100149.28
2023-01-03T05:29:14.605Z,100140.47
2023-01-03T05:30:25.835Z,100146.63
2023-01-03T05:31:29.888Z,100151.13
2023-01-03T05:32:35.298Z,100144.00
2023-01-03T05:33:41.712Z,100147.56
2023-01-03T05:34:45.642Z,100152.88
2023-01-03T05:35:49.790Z,100156.41
2023-01-03T05:37:06.028Z,100157.34
2023-01-03T05:38:12.696Z,100163.50
2023-01-03T05:39:24.426Z,100169.66
2023-01-03T05:40:28.255Z,100167.00
2023-01-03T05:41:54.734Z,100164.31
2023-01-03T05:42:59.847Z,100172.28
2023-01-03T05:44:03.970Z,100163.47
2023-01-03T05:45:09.602Z,100171.25
2023-01-03T05:46:14.135Z,100179.19
2023-01-03T05:47:19.449Z,100170.31
2023-01-03T05:48:27.422Z,100172.88
2023-01-03T05:49:43.842Z,100181.75
2023-01-03T05:50:53.421Z,100181.69
2023-01-03T05:52:06.628Z,100186.13
2023-01-03T05:53:10.804Z,100186.22
2023-01-03T05:54:21.442Z,100181.84
2023-01-03T05:55:25.785Z,100183.63
2023-01-03T05:56:33.013Z,100189.00
2023-01-03T05:57:37.055Z,100187.31
2023-01-03T05:58:50.486Z,100189.78
2023-01-03T05:59:54.115Z,100200.38
2023-01-03T06:01:13.574Z,100191.50
2023-01-03T06:02:18.227Z,100198.69
2023-01-03T06:03:21.805Z,100196.09
2023-01-03T06:04:25.530Z,100193.47
2023-01-03T06:05:31.501Z,100194.53
2023-01-03T06:06:36.973Z,100192.59
2023-01-03T06:07:41.133Z,100190.81
2023-01-03T06:08:45.153Z,100200.47
2023-01-03T06:09:49.006Z,100195.94
2023-01-03T06:10:53.072Z,100193.38
2023-01-03T06:11:56.663Z,100203.97
2023-01-03T06:13:01.531Z,100195.16
2023-01-03T06:14:07.440Z,100201.53
2023-01-03T06:15:21.300Z,100198.81
2023-01-03T06:16:52.869Z,100197.94
2023-01-03T06:18:03.271Z,100205.97
2023-01-03T06:19:13.840Z,100203.31
2023-01-03T06:20:18.176Z,100203.31
2023-01-03T06:21:22.449Z,100207.69
2023-01-03T06:22:26.248Z,100211.28
2023-01-03T06:23:36.836Z,100215.88
2023-01-03T06:24:42.260Z,100207.97
2023-01-03T06:25:51.649Z,100213.28
2023-01-03T06:26:55.535Z,100213.44
2023-01-03T06:28:07.084Z,100218.66
2023-01-03T06:29:12.318Z,100223.09
2023-01-03T06:30:27.281Z,100220.59
2023-01-03T06:31:36.168Z,100230.34
2023-01-03T06:32:40.477Z,100226.88
2023-01-03T06:33:45.422Z,100231.31
2023-01-03T06:34:48.836Z,100241.78
2023-01-03T06:35:52.811Z,100242.47
2023-01-03T06:37:10.871Z,100240.75
2023-01-03T06:38:14.408Z,100246.91
2023-01-03T06:39:19.400Z,100249.66
2023-01-03T06:40:22.909Z,100246.06
2023-01-03T06:41:26.715Z,100246.13
2023-01-03T06:42:40.348Z,100256.66
2023-01-03T06:43:44.691Z,100257.50
2023-01-03T06:45:08.574Z,100254.88
2023-01-03T06:46:32.612Z,100263.75
2023-01-03T06:47:56.376Z,100257.50
2023-01-03T06:49:19.776Z,100268.09
2023-01-03T06:50:42.533Z,100261.94
2023-01-03T06:52:11.964Z,100274.25
2023-01-03T06:53:22.559Z,100273.41
2023-01-03T06:54:36.455Z,100274.19
2023-01-03T06:55:42.981Z,100277.75
2023-01-03T06:56:47.873Z,100273.41
2023-01-03T06:57:54.795Z,100276.97
2023-01-03T06:59:06.465Z,100270.91
2023-01-03T07:00:19.312Z,100271.84
2023-01-03T07:01:23.123Z,100276.97
2023-01-03T07:02:34.254Z,100281.50
2023-01-03T07:03:38.623Z,100280.69
2023-01-03T07:04:45.133Z,100278.97
2023-01-03T07:05:50.553Z,100280.69
2023-01-03T07:06:55.979Z,100288.59
2023-01-03T07:07:59.667Z,100285.13
2023-01-03T07:09:05.437Z,100281.63
2023-01-03T07:10:10.583Z,100289.72
2023-01-03T07:11:15.337Z,100285.41
2023-01-03T07:12:39.406Z,100281.97
2023-01-03T07:14:03.269Z,100281.41
2023-01-03T07:15:14.855Z,100278.66
2023-01-03T07:16:25.000Z,100284.69
2023-01-03T07:17:30.485Z,100283.75
2023-01-03T07:18:34.173Z,100288.13
2023-01-03T07:19:38.490Z,100294.25
2023-01-03T07:20:46.298Z,100282.63
2023-01-03T07:21:49.932Z,100284.28
2023-01-03T07:22:54.044Z,100285.13
2023-01-03T07:24:01.956Z,100299.38
2023-01-03T07:25:08.577Z,100302.03
2023-01-03T07:26:12.675Z,100298.53
2023-01-03T07:27:16.806Z,100294.09
2023-01-03T07:28:20.375Z,100300.25
2023-01-03T07:29:24.562Z,100287.84
2023-01-03T07:30:28.756Z,100300.03
2023-01-03T07:31:35.542Z,100306.28
2023-01-03T07:32:39.367Z,100306.13
2023-01-03T07:33:43.043Z,100305.19
2023-01-03T07:34:46.972Z,100308.19
2023-01-03T07:35:50.488Z,100309.78
2023-01-03T07:36:54.330Z,100314.25
2023-01-03T07:37:58.246Z,100309.63
2023-01-03T07:39:02.200Z,100316.56
2023-01-03T07:40:07.207Z,100326.25
2023-01-03T07:41:12.786Z,100311.25
2023-01-03T07:42:36.164Z,100317.66
2023-01-03T07:43:53.744Z,100321.28
2023-01-03T07:44:57.374Z,100323.00
2023-01-03T07:46:22.556Z,100324.72
2023-01-03T07:47:27.225Z,100322.00
2023-01-03T07:48:31.596Z,100329.03
2023-01-03T07:49:35.109Z,100323.53
2023-01-03T07:50:39.901Z,100326.25
2023-01-03T07:51:43.274Z,100326.25
2023-01-03T07:52:47.395Z,100337.75
2023-01-03T07:53:53.624Z,100332.25
2023-01-03T07:54:58.390Z,100333.09
2023-01-03T07:56:13.506Z,100338.41
2023-01-03T07:57:20.851Z,100334.13
2023-01-03T07:58:24.524Z,100332.16
2023-01-03T07:59:28.155Z,100345.41
2023-01-03T08:00:32.653Z,100342.41
2023-01-03T08:01:36.410Z,100334.34
2023-01-03T08:02:40.114Z,100343.00
2023-01-03T08:03:44.620Z,100352.47
2023-01-03T08:04:48.541Z,100340.28
2023-01-03T08:05:52.410Z,100348.28
2023-01-03T08:06:58.222Z,100338.47
2023-01-03T08:08:03.969Z,100349.72
2023-01-03T08:09:35.566Z,100357.69
2023-01-03T08:10:58.583Z,100349.72
2023-01-03T08:12:22.560Z,100350.59
2023-01-03T08:13:26.065Z,100350.50
2023-01-03T08:14:32.701Z,100353.91
2023-01-03T08:15:36.214Z,100351.09
2023-01-03T08:16:39.898Z,100359.78
2023-01-03T08:17:44.229Z,100349.09
2023-01-03T08:18:47.830Z,100352.59
2023-01-03T08:19:51.359Z,100356.88
2023-01-03T08:20:57.390Z,100356.19
2023-01-03T08:22:02.486Z,100359.63
2023-01-03T08:23:12.866Z,100359.41
2023-01-03T08:24:17.325Z,100355.75
2023-01-03T08:25:20.987Z,100355.91
2023-01-03T08:26:24.628Z,100359.50
2023-01-03T08:27:28.245Z,100358.56
2023-01-03T08:28:32.668Z,100359.34
2023-01-03T08:29:36.468Z,100360.19
2023-01-03T08:30:46.440Z,100366.63
2023-01-03T08:31:58.783Z,100370.09
2023-01-03T08:33:04.289Z,100371.03
2023-01-03T08:34:26.998Z,100370.88
2023-01-03T08:35:38.615Z,100363.38
2023-01-03T08:36:55.145Z,100374.09
2023-01-03T08:38:01.863Z,100370.66
2023-01-03T08:39:17.877Z,100376.13
2023-01-03T08:40:22.287Z,100373.47
2023-01-03T08:41:36.331Z,100372.59
2023-01-03T08:42:40.566Z,100370.84
2023-01-03T08:43:47.776Z,100375.53
2023-01-03T08:45:01.537Z,100373.81
2023-01-03T08:46:10.426Z,100376.13
2023-01-03T08:47:16.193Z,100374.31
2023-01-03T08:48:22.556Z,100368.88
2023-01-03T08:49:26.957Z,100374.25
2023-01-03T08:50:35.027Z,100375.38
2023-01-03T08:51:39.069Z,100379.66
2023-01-03T08:52:43.781Z,100376.03
2023-01-03T08:53:47.390Z,100384.63
2023-01-03T08:54:51.160Z,100377.22
2023-01-03T08:55:59.790Z,100382.25
2023-01-03T08:57:06.691Z,100382.13
2023-01-03T08:58:16.110Z,100375.03
2023-01-03T08:59:19.960Z,100370.31
2023-01-03T09:00:24.368Z,100378.25
2023-01-03T09:01:28.283Z,100379.81
2023-01-03T09:02:38.388Z,100376.31
2023-01-03T09:03:42.111Z,100380.31
2023-01-03T09:04:46.813Z,100379.09
2023-01-03T09:06:01.596Z,100371.63
2023-01-03T09:07:08.129Z,100373.38
2023-01-03T09:08:16.189Z,100371.31
2023-01-03T09:09:21.418Z,100376.41
2023-01-03T09:10:27.942Z,100370.91
2023-01-03T09:11:38.990Z,100375.09
2023-01-03T09:12:44.005Z,100373.94
2023-01-03T09:13:49.311Z,100377.28
2023-01-03T09:14:59.639Z,100376.09
2023-01-03T09:16:21.264Z,100373.13
2023-01-03T09:17:25.102Z,100370.25
2023-01-03T09:18:40.285Z,100370.03
2023-01-03T09:19:44.515Z,100378.59
2023-01-03T09:20:52.900Z,100369.25
2023-01-03T09:21:56.357Z,100378.38
2023-01-03T09:22:59.746Z,100377.13
2023-01-03T09:24:03.315Z,100377.44
2023-01-03T09:25:11.041Z,100376.72
2023-01-03T09:26:15.368Z,100368.16
2023-01-03T09:27:19.042Z,100369.09
2023-01-03T09:28:22.557Z,100374.88
2023-01-03T09:29:26.662Z,100378.91
2023-01-03T09:30:30.623Z,100377.63
2023-01-03T09:31:34.927Z,100385.28
2023-01-03T09:32:40.081Z,100378.84
2023-01-03T09:33:43.921Z,100380.50
2023-01-03T09:34:49.486Z,100375.94
2023-01-03T09:35:56.932Z,100372.00
2023-01-03T09:37:04.748Z,100367.91
2023-01-03T09:38:14.093Z,100379.13
2023-01-03T09:39:20.291Z,100376.00
2023-01-03T09:40:25.943Z,100378.31
2023-01-03T09:41:35.623Z,100373.69
2023-01-03T09:43:02.508Z,100373.69
2023-01-03T09:44:14.446Z,100372.22
2023-01-03T09:45:30.447Z,100369.28
2023-01-03T09:46:40.212Z,100376.47
2023-01-03T09:47:46.275Z,100372.00
2023-01-03T09:48:54.351Z,100375.19
2023-01-03T09:51:51.045Z,100377.84
2023-01-03T09:53:14.240Z,100378.59
2023-01-03T09:55:00.487Z,100372.66
2023-01-03T09:56:25.265Z,100382.19
2023-01-03T09:57:54.708Z,100364.13
2023-01-03T09:59:57.334Z,100368.25
2023-01-03T10:01:52.452Z,100364.28
2023-01-03T10:03:50.287Z,100360.44
2023-01-03T10:05:12.455Z,100365.50
2023-01-03T10:07:06.095Z,100371.56
2023-01-03T10:08:38.892Z,100363.19
2023-01-03T10:10:01.255Z,100371.75
2023-01-03T10:11:39.364Z,100375.09
2023-01-03T10:13:20.262Z,100371.06
2023-01-03T10:14:58.367Z,100376.41
2023-01-03T10:16:27.268Z,100368.50
2023-01-03T10:17:43.562Z,100369.25
2023-01-03T10:19:09.252Z,100374.59
2023-01-03T10:20:35.334Z,100372.72
2023-01-03T10:21:50.507Z,100371.63
2023-01-03T10:22:56.371Z,100367.25
2023-01-03T10:24:00.337Z,100369.09
2023-01-03T10:25:16.585Z,100374.53
2023-01-03T10:26:20.613Z,100370.66
2023-01-03T10:27:29.957Z,100374.44
2023-01-03T10:28:41.198Z,100376.59
2023-01-03T10:29:48.141Z,100366.94
2023-01-03T10:31:24.107Z,100371.63
2023-01-03T10:33:25.436Z,100366.72
2023-01-03T10:34:29.232Z,100364.31
2023-01-03T10:35:36.644Z,100376.69
2023-01-03T10:36:42.468Z,100365.94
2023-01-03T10:37:50.605Z,100370.25
2023-01-03T10:39:11.359Z,100376.78
2023-01-03T10:40:15.994Z,100377.97
2023-01-03T10:41:47.851Z,100376.34
2023-01-03T10:42:59.317Z,100371.78
2023-01-03T10:44:04.566Z,100371.28
2023-01-03T10:45:16.830Z,100364.44
2023-01-03T10:46:22.989Z,100371.66
2023-01-03T10:47:27.813Z,100369.75
2023-01-03T10:49:26.111Z,100374.69
2023-01-03T10:50:24.228Z,100370.94
2023-01-03T10:51:43.026Z,100378.91
2023-01-03T10:52:55.073Z,100371.88
2023-01-03T10:54:02.117Z,100368.28
2023-01-03T10:55:18.718Z,100373.00
2023-01-03T10:56:24.594Z,100380.81
2023-01-03T10:58:10.939Z,100366.03
2023-01-03T10:59:32.898Z,100374.72
2023-01-03T11:00:38.568Z,100382.59
2023-01-03T11:01:56.813Z,100372.06
2023-01-03T11:03:11.828Z,100374.88
2023-01-03T11:04:20.294Z,100376.69
2023-01-03T11:05:27.174Z,100376.53
2023-01-03T11:06:30.848Z,100383.22
2023-01-03T11:07:34.553Z,100377.19
2023-01-03T11:08:48.804Z,100371.63
2023-01-03T11:09:58.754Z,100369.09
2023-01-03T11:11:02.373Z,100369.19
2023-01-03T11:12:38.247Z,100363.69
2023-01-03T11:13:43.318Z,100364.56
2023-01-03T11:14:56.479Z,100365.34
2023-01-03T11:16:12.616Z,100366.59
2023-01-03T11:17:20.628Z,100363.75
2023-01-03T11:18:28.099Z,100365.75
2023-01-03T11:19:34.989Z,100368.50
2023-01-03T11:21:14.516Z,100358.56
2023-01-03T11:22:46.707Z,100361.47
2023-01-03T11:24:18.331Z,100361.66
2023-01-03T11:25:41.298Z,100356.16
2023-01-03T11:26:50.787Z,100361.13
2023-01-03T11:28:27.960Z,100356.41
2023-01-03T11:30:12.657Z,100367.72
2023-01-03T11:32:00.312Z,100366.97
2023-01-03T11:33:51.308Z,100358.56
2023-01-03T11:37:01.115Z,100356.59
2023-01-03T11:38:38.443Z,100360.16
2023-01-03T11:40:18.268Z,100357.50
2023-01-03T11:41:54.408Z,100358.38
2023-01-03T11:43:44.973Z,100350.75
2023-01-03T11:45:44.791Z,100351.53
2023-01-03T11:47:14.029Z,100354.03
2023-01-03T11:48:30.557Z,100362.34
2023-01-03T11:49:58.558Z,100350.00
2023-01-03T11:52:16.467Z,100348.69
2023-01-03T11:54:40.375Z,100350.41
2023-01-03T11:56:06.243Z,100343.78
2023-01-03T11:57:53.826Z,100353.31
2023-01-03T11:59:52.887Z,100350.56
2023-01-03T12:01:24.042Z,100348.97
2023-01-03T12:03:04.930Z,100351.53
2023-01-03T12:04:54.083Z,100345.34
2023-01-03T12:06:44.956Z,100354.78
2023-01-03T12:08:27.551Z,100353.00
2023-01-03T12:09:58.271Z,100346.78
2023-01-03T12:11:18.547Z,100345.94
2023-01-03T12:12:46.100Z,100345.44
2023-01-03T12:14:39.705Z,100351.88
2023-01-03T12:16:16.806Z,100354.56
2023-01-03T12:17:34.143Z,100343.72
2023-01-03T12:18:55.362Z,100351.34
2023-01-03T12:20:22.285Z,100352.97
2023-01-03T12:22:01.424Z,100337.00
2023-01-03T12:23:43.153Z,100335.81
2023-01-03T12:25:02.552Z,100341.13
2023-01-03T12:26:16.538Z,100340.44
2023-01-03T12:27:32.703Z,100343.97
2023-01-03T12:28:41.987Z,100342.31
2023-01-03T12:30:29.336Z,100344.03
2023-01-03T12:31:57.561Z,100344.56
2023-01-03T12:33:32.079Z,100342.94
2023-01-03T12:34:40.204Z,100346.78
2023-01-03T12:36:14.894Z,100336.69
2023-01-03T12:37:26.990Z,100337.00
2023-01-03T12:38:38.233Z,100335.13
2023-01-03T12:39:57.895Z,100337.00
2023-01-03T12:41:10.290Z,100334.97
2023-01-03T12:42:37.331Z,100340.63
2023-01-03T12:44:10.950Z,100346.94
2023-01-03T12:45:40.332Z,100341.47
2023-01-03T12:46:55.994Z,100343.28
2023-01-03T12:48:41.061Z,100338.72
2023-01-03T12:50:15.741Z,100336.91
2023-01-03T12:51:23.080Z,100330.41
2023-01-03T12:52:29.290Z,100333.75
2023-01-03T12:53:53.378Z,100336.56
2023-01-03T12:55:35.053Z,100334.59
2023-01-03T12:57:03.191Z,100333.59
2023-01-03T12:58:39.273Z,100331.25
2023-01-03T13:00:52.831Z,100335.81
2023-01-03T13:02:10.046Z,100337.69
2023-01-03T13:03:37.336Z,100332.88
2023-01-03T13:04:54.651Z,100330.41
2023-01-03T13:06:26.495Z,100331.41
2023-01-03T13:07:39.873Z,100326.47
2023-01-03T13:09:00.294Z,100340.19
2023-01-03T13:10:17.590Z,100329.78
2023-01-03T13:11:27.184Z,100337.53
2023-01-03T13:12:37.310Z,100340.72
2023-01-03T13:14:06.415Z,100337.34
2023-01-03T13:15:37.530Z,100334.25
2023-01-03T13:16:47.347Z,100336.78
2023-01-03T13:17:53.048Z,100337.53
2023-01-03T13:19:16.768Z,100339.25
2023-01-03T13:20:36.489Z,100334.97
2023-01-03T13:21:55.536Z,100335.81
2023-01-03T13:23:24.636Z,100338.38
2023-01-03T13:24:52.387Z,100340.00
2023-01-03T13:26:19.906Z,100339.66
2023-01-03T13:27:38.092Z,100328.50
2023-01-03T13:28:41.526Z,100332.88
2023-01-03T13:30:17.033Z,100330.59
2023-01-03T13:31:23.704Z,100324.38
2023-01-03T13:32:37.906Z,100333.75
2023-01-03T13:34:30.231Z,100330.94
2023-01-03T13:35:47.005Z,100337.97
2023-01-03T13:37:13.175Z,100329.97
2023-01-03T13:38:40.197Z,100330.13
2023-01-03T13:39:43.857Z,100332.63
2023-01-03T13:41:17.203Z,100333.41
2023-01-03T13:42:40.805Z,100336.81
2023-01-03T13:43:50.494Z,100332.63
2023-01-03T13:45:24.018Z,100336.41
2023-01-03T13:46:33.586Z,100337.19
2023-01-03T13:47:58.691Z,100334.59
2023-01-03T13:49:17.070Z,100333.66
2023-01-03T13:50:33.506Z,100335.53
2023-01-03T13:51:40.488Z,100336.31
2023-01-03T13:53:26.214Z,100336.16
2023-01-03T13:55:07.911Z,100345.94
2023-01-03T13:56:16.993Z,100331.69
2023-01-03T13:57:53.010Z,100334.59
2023-01-03T13:59:35.623Z,100343.38
2023-01-03T14:00:41.054Z,100340.78
2023-01-03T14:02:12.569Z,100339.84
2023-01-03T14:03:55.206Z,100341.91
2023-01-03T14:06:02.444Z,100343.94
2023-01-03T14:08:00.527Z,100336.81
2023-01-03T14:09:36.286Z,100343.00
2023-01-03T14:11:29.123Z,100348.31
2023-01-03T14:12:44.199Z,100353.03
2023-01-03T14:13:59.807Z,100355.59
2023-01-03T14:15:26.250Z,100359.22
2023-01-03T14:16:46.968Z,100352.25
2023-01-03T14:18:21.082Z,100353.94
2023-01-03T14:19:40.966Z,100358.50
2023-01-03T14:20:55.717Z,100370.84
2023-01-03T14:22:27.602Z,100364.75
2023-01-03T14:23:59.047Z,100373.69
2023-01-03T14:24:57.602Z,100374.78
2023-01-03T14:26:17.915Z,100368.59